Time;durP1;ratioP1;P1;durP2;ratioP2;P2;SDS_P1;SDS_P2;PMS_P1;PMS_P2;Temp;Humidity;BMP_temperature;BMP_pressure;BME280_temperature;BME280_humidity;BME280_pressure;Samples;Min_cycle;Max_cycle;Signal;HPM_P1;HPM_P2
2021/06/25 00:01:17;;;;;;;;;;;26.20;46.40;;;;;;1600024;73;805;-70
2021/06/25 00:03:19;;;;;;;;;;;26.10;46.30;;;;;;1597682;73;726;-68
2021/06/25 00:05:21;;;;;;;;;;;26.10;46.30;;;;;;1598462;73;704;-68
2021/06/25 00:07:23;;;;;;;;;;;26.20;46.30;;;;;;1589768;73;705;-67
2021/06/25 00:09:25;;;;;;;;;;;26.10;46.30;;;;;;1563433;75;1082;-68
2021/06/25 00:11:27;;;;;;;;;;;26.10;46.20;;;;;;1567309;75;1935;-68
2021/06/25 00:13:29;;;;;;;;;;;26.10;46.20;;;;;;1574599;74;761;-69
2021/06/25 00:15:31;;;;;;;;;;;26.20;46.20;;;;;;1598190;73;761;-67
2021/06/25 00:17:32;;;;;;;;;;;26.20;46.20;;;;;;1566707;75;1160;-65
2021/06/25 00:19:34;;;;;;;;;;;26.20;46.20;;;;;;1592420;73;799;-68
2021/06/25 00:21:36;;;;;;;;;;;26.10;46.10;;;;;;1598305;73;831;-64
2021/06/25 00:23:38;;;;;;;;;;;26.10;46.10;;;;;;1598362;73;813;-67
2021/06/25 00:25:40;;;;;;;;;;;26.10;46.10;;;;;;1588807;73;810;-67
2021/06/25 00:27:42;;;;;;;;;;;26.10;46.20;;;;;;1577497;73;1119;-67
2021/06/25 00:29:44;;;;;;;;;;;26.10;46.10;;;;;;1602601;73;779;-68
2021/06/25 00:31:46;;;;;;;;;;;26.00;46.10;;;;;;1604145;73;1955;-67
2021/06/25 00:33:48;;;;;;;;;;;26.10;46.10;;;;;;1598975;73;775;-68
2021/06/25 00:35:50;;;;;;;;;;;26.10;46.00;;;;;;1590207;73;809;-67
2021/06/25 00:37:51;;;;;;;;;;;26.10;46.00;;;;;;1594144;73;1138;-67
2021/06/25 00:39:53;;;;;;;;;;;26.10;46.00;;;;;;1593553;73;704;-67
2021/06/25 00:41:55;;;;;;;;;;;26.00;45.90;;;;;;1602307;73;722;-68
2021/06/25 00:43:57;;;;;;;;;;;26.10;45.80;;;;;;1600698;73;799;-67
2021/06/25 00:45:59;;;;;;;;;;;26.10;46.00;;;;;;1607546;73;768;-68
2021/06/25 00:48:01;;;;;;;;;;;26.10;46.00;;;;;;1591678;73;1136;-69
2021/06/25 00:50:04;;;;;;;;;;;26.10;45.90;;;;;;1607460;73;781;-65
2021/06/25 00:52:08;;;;;;;;;;;26.00;45.90;;;;;;1602005;73;1912;-67
2021/06/25 00:54:11;;;;;;;;;;;26.10;45.80;;;;;;1591301;73;923;-67
2021/06/25 00:56:13;;;;;;;;;;;26.10;46.00;;;;;;1601377;73;771;-69
2021/06/25 00:58:16;;;;;;;;;;;26.10;45.90;;;;;;1581875;73;1204;-67
2021/06/25 01:00:18;;;;;;;;;;;26.10;45.90;;;;;;1600511;73;672;-70
2021/06/25 01:02:20;;;;;;;;;;;26.10;45.80;;;;;;1606848;73;1093;-68
2021/06/25 01:04:22;;;;;;;;;;;26.10;45.90;;;;;;1599090;73;707;-68
2021/06/25 01:06:24;;;;;;;;;;;26.10;45.90;;;;;;1601759;73;710;-68
2021/06/25 01:08:26;;;;;;;;;;;26.00;45.80;;;;;;1600489;73;1162;-68
2021/06/25 01:10:28;;;;;;;;;;;26.10;45.60;;;;;;1600527;73;817;-65
2021/06/25 01:12:30;;;;;;;;;;;26.10;45.50;;;;;;1601221;73;1930;-68
2021/06/25 01:14:32;;;;;;;;;;;26.10;45.60;;;;;;1598275;73;774;-68
2021/06/25 01:16:34;;;;;;;;;;;26.10;45.60;;;;;;1596855;73;784;-70
2021/06/25 01:18:36;;;;;;;;;;;26.00;45.50;;;;;;1604602;73;1146;-68
2021/06/25 01:20:38;;;;;;;;;;;26.10;45.70;;;;;;1590079;73;718;-68
2021/06/25 01:22:41;;;;;;;;;;;26.10;45.70;;;;;;1583723;73;786;-68
2021/06/25 01:24:43;;;;;;;;;;;26.10;45.90;;;;;;1599849;73;817;-69
2021/06/25 01:26:45;;;;;;;;;;;26.20;45.70;;;;;;1601836;73;794;-70
2021/06/25 01:28:47;;;;;;;;;;;26.00;45.50;;;;;;1588528;73;1119;-67
2021/06/25 01:30:49;;;;;;;;;;;26.00;45.40;;;;;;1595462;73;789;-72
2021/06/25 01:32:51;;;;;;;;;;;26.10;45.30;;;;;;1598742;73;1901;-67
2021/06/25 01:34:53;;;;;;;;;;;26.10;45.20;;;;;;1603101;73;726;-67
2021/06/25 01:36:55;;;;;;;;;;;26.00;45.20;;;;;;1598067;73;745;-67
2021/06/25 01:38:57;;;;;;;;;;;26.10;45.20;;;;;;1605820;73;1221;-67
2021/06/25 01:41:00;;;;;;;;;;;26.00;45.10;;;;;;1593170;73;765;-67
2021/06/25 01:43:02;;;;;;;;;;;26.00;45.10;;;;;;1586068;73;565;-67
2021/06/25 01:45:04;;;;;;;;;;;26.10;45.10;;;;;;1608367;73;754;-67
2021/06/25 01:47:06;;;;;;;;;;;26.00;45.10;;;;;;1603549;73;767;-67
2021/06/25 01:49:08;;;;;;;;;;;26.00;45.00;;;;;;1602780;73;1146;-68
2021/06/25 01:51:10;;;;;;;;;;;26.00;45.00;;;;;;1598105;73;730;-68
2021/06/25 01:53:13;;;;;;;;;;;26.00;45.20;;;;;;1597610;73;1967;-68
2021/06/25 01:55:15;;;;;;;;;;;26.10;45.10;;;;;;1592303;73;750;-67
2021/06/25 01:57:17;;;;;;;;;;;26.00;45.20;;;;;;1599911;73;801;-67
2021/06/25 01:59:18;;;;;;;;;;;26.00;44.90;;;;;;1604747;73;1080;-69
2021/06/25 02:01:20;;;;;;;;;;;26.00;44.90;;;;;;1580129;73;777;-67
2021/06/25 02:03:22;;;;;;;;;;;26.00;44.90;;;;;;1602779;73;688;-67
2021/06/25 02:05:24;;;;;;;;;;;26.00;44.80;;;;;;1600633;74;766;-67
2021/06/25 02:07:26;;;;;;;;;;;26.00;44.80;;;;;;1585738;74;741;-68
2021/06/25 02:09:28;;;;;;;;;;;26.10;45.10;;;;;;1581523;73;1092;-69
2021/06/25 02:11:30;;;;;;;;;;;26.00;45.30;;;;;;1597531;73;762;-68
2021/06/25 02:13:31;;;;;;;;;;;26.00;45.10;;;;;;1593160;73;1937;-68
2021/06/25 02:15:33;;;;;;;;;;;26.00;45.00;;;;;;1595788;73;715;-67
2021/06/25 02:17:35;;;;;;;;;;;26.00;44.80;;;;;;1587390;73;1186;-67
2021/06/25 02:19:37;;;;;;;;;;;26.00;45.00;;;;;;1608753;73;822;-68
2021/06/25 02:21:39;;;;;;;;;;;26.00;44.80;;;;;;1607416;73;694;-68
2021/06/25 02:23:41;;;;;;;;;;;26.00;44.90;;;;;;1598151;73;764;-68
2021/06/25 02:25:43;;;;;;;;;;;26.00;44.80;;;;;;1588192;73;797;-69
2021/06/25 02:27:45;;;;;;;;;;;26.00;44.80;;;;;;1602396;73;1162;-66
2021/06/25 02:29:46;;;;;;;;;;;26.00;44.70;;;;;;1599089;73;946;-68
2021/06/25 02:31:48;;;;;;;;;;;26.00;44.70;;;;;;1606995;73;1932;-68
2021/06/25 02:33:50;;;;;;;;;;;26.00;44.70;;;;;;1596999;73;772;-68
2021/06/25 02:35:52;;;;;;;;;;;26.00;44.70;;;;;;1596125;73;685;-67
2021/06/25 02:37:57;;;;;;;;;;;26.00;44.70;;;;;;1599562;73;1175;-68
2021/06/25 02:39:59;;;;;;;;;;;26.00;44.70;;;;;;1601844;73;700;-68
2021/06/25 02:42:01;;;;;;;;;;;26.00;44.70;;;;;;1582038;73;701;-68
2021/06/25 02:44:03;;;;;;;;;;;26.00;44.70;;;;;;1584939;73;744;-68
2021/06/25 02:46:05;;;;;;;;;;;26.00;45.20;;;;;;1600601;73;783;-68
2021/06/25 02:48:07;;;;;;;;;;;26.00;45.20;;;;;;1603946;73;1139;-68
2021/06/25 02:50:09;;;;;;;;;;;25.90;44.50;;;;;;1600736;73;710;-69
2021/06/25 02:52:11;;;;;;;;;;;25.90;44.30;;;;;;1598366;73;1926;-66
2021/06/25 02:54:13;;;;;;;;;;;25.90;44.30;;;;;;1594766;73;735;-68
2021/06/25 02:56:15;;;;;;;;;;;25.90;44.30;;;;;;1601606;73;725;-70
2021/06/25 02:58:20;;;;;;;;;;;25.90;44.30;;;;;;1606687;73;1146;-69
2021/06/25 03:00:22;;;;;;;;;;;25.90;44.20;;;;;;1598229;73;740;-68
2021/06/25 03:02:24;;;;;;;;;;;25.90;44.20;;;;;;1601029;73;787;-68
2021/06/25 03:04:26;;;;;;;;;;;26.00;44.70;;;;;;1601795;73;695;-69
2021/06/25 03:06:28;;;;;;;;;;;25.90;44.20;;;;;;1600291;73;772;-69
2021/06/25 03:08:30;;;;;;;;;;;25.90;44.20;;;;;;1593258;73;1126;-68
2021/06/25 03:10:32;;;;;;;;;;;25.90;44.20;;;;;;1596639;73;788;-68
2021/06/25 03:12:34;;;;;;;;;;;25.90;44.20;;;;;;1596180;73;1936;-70
2021/06/25 03:14:36;;;;;;;;;;;25.90;44.40;;;;;;1599356;73;828;-69
2021/06/25 03:16:37;;;;;;;;;;;25.90;44.40;;;;;;1602052;73;780;-68
2021/06/25 03:18:39;;;;;;;;;;;25.90;44.70;;;;;;1596934;73;1151;-68
2021/06/25 03:20:41;;;;;;;;;;;25.90;44.70;;;;;;1591240;73;773;-69
2021/06/25 03:22:43;;;;;;;;;;;25.90;44.70;;;;;;1598771;73;758;-68
2021/06/25 03:24:45;;;;;;;;;;;25.90;44.80;;;;;;1594664;73;776;-68
2021/06/25 03:26:47;;;;;;;;;;;25.90;45.00;;;;;;1595188;73;800;-69
2021/06/25 03:28:49;;;;;;;;;;;25.90;45.00;;;;;;1594234;73;1130;-69
2021/06/25 03:30:51;;;;;;;;;;;25.90;45.00;;;;;;1597830;73;817;-68
2021/06/25 03:32:53;;;;;;;;;;;25.80;45.00;;;;;;1600993;73;1926;-67
2021/06/25 03:34:55;;;;;;;;;;;25.90;45.00;;;;;;1597392;73;662;-68
2021/06/25 03:36:57;;;;;;;;;;;25.90;45.00;;;;;;1595768;73;747;-68
2021/06/25 03:38:58;;;;;;;;;;;25.90;45.00;;;;;;1602897;73;1189;-68
2021/06/25 03:41:00;;;;;;;;;;;25.80;45.00;;;;;;1598690;73;726;-67
2021/06/25 03:43:03;;;;;;;;;;;25.90;45.00;;;;;;1561549;74;684;-68
2021/06/25 03:45:05;;;;;;;;;;;25.90;45.00;;;;;;1598956;73;864;-66
2021/06/25 03:47:08;;;;;;;;;;;25.90;45.00;;;;;;1603055;73;779;-66
2021/06/25 03:49:10;;;;;;;;;;;25.90;45.00;;;;;;1618616;72;1139;-66
2021/06/25 03:51:11;;;;;;;;;;;25.80;45.10;;;;;;1617312;72;747;-65
2021/06/25 03:53:13;;;;;;;;;;;25.90;45.10;;;;;;1621082;72;1938;-66
2021/06/25 03:55:15;;;;;;;;;;;25.90;45.20;;;;;;1613791;72;727;-66
2021/06/25 03:57:17;;;;;;;;;;;25.80;45.20;;;;;;1613824;72;859;-67
2021/06/25 03:59:19;;;;;;;;;;;25.90;45.00;;;;;;1619070;72;1133;-68
2021/06/25 04:01:21;;;;;;;;;;;25.90;45.00;;;;;;1620065;72;946;-66
2021/06/25 04:03:23;;;;;;;;;;;25.90;44.90;;;;;;1615628;72;698;-66
2021/06/25 04:05:25;;;;;;;;;;;25.90;44.80;;;;;;1619583;72;719;-66
2021/06/25 04:07:27;;;;;;;;;;;25.90;44.90;;;;;;1619483;72;728;-68
2021/06/25 04:09:29;;;;;;;;;;;25.90;44.70;;;;;;1620135;72;1181;-66
2021/06/25 04:11:31;;;;;;;;;;;25.90;44.80;;;;;;1620761;72;798;-65
2021/06/25 04:13:33;;;;;;;;;;;25.90;44.90;;;;;;1617554;72;1935;-64
2021/06/25 04:15:35;;;;;;;;;;;25.90;44.70;;;;;;1618238;72;766;-67
2021/06/25 04:17:37;;;;;;;;;;;25.90;44.90;;;;;;1615895;72;1149;-67
2021/06/25 04:19:39;;;;;;;;;;;25.90;44.90;;;;;;1617018;72;850;-67
2021/06/25 04:21:41;;;;;;;;;;;25.90;44.90;;;;;;1621476;72;793;-68
2021/06/25 04:23:43;;;;;;;;;;;25.90;44.80;;;;;;1614294;72;741;-67
2021/06/25 04:25:44;;;;;;;;;;;25.90;44.70;;;;;;1623521;72;737;-65
2021/06/25 04:27:46;;;;;;;;;;;25.90;44.70;;;;;;1619410;72;1134;-69
2021/06/25 04:29:48;;;;;;;;;;;25.90;44.70;;;;;;1621576;72;779;-66
2021/06/25 04:31:53;;;;;;;;;;;25.90;44.70;;;;;;1621871;72;775;-64
2021/06/25 04:33:54;;;;;;;;;;;25.90;44.80;;;;;;1616937;72;1936;-66
2021/06/25 04:35:55;;;;;;;;;;;25.90;44.70;;;;;;1621616;72;720;-67
2021/06/25 04:38:01;;;;;;;;;;;25.90;45.00;;;;;;1613692;72;1182;-66
2021/06/25 04:40:01;;;;;;;;;;;25.90;44.70;;;;;;1619081;72;1508;-69
2021/06/25 04:42:03;;;;;;;;;;;25.90;44.80;;;;;;1612579;72;812;-66
2021/06/25 04:44:05;;;;;;;;;;;25.90;44.70;;;;;;1619530;72;725;-70
2021/06/25 04:46:07;;;;;;;;;;;25.90;44.60;;;;;;1619552;72;753;-66
2021/06/25 04:48:10;;;;;;;;;;;25.90;44.70;;;;;;1619400;72;1128;-66
2021/06/25 04:50:12;;;;;;;;;;;25.90;44.50;;;;;;1620490;72;801;-69
2021/06/25 04:52:14;;;;;;;;;;;25.90;44.70;;;;;;1621623;72;746;-69
2021/06/25 04:54:16;;;;;;;;;;;25.90;44.10;;;;;;1617564;72;1955;-66
2021/06/25 04:56:18;;;;;;;;;;;26.00;44.70;;;;;;1624068;72;791;-67
2021/06/25 04:58:22;;;;;;;;;;;25.90;44.20;;;;;;1617354;72;1134;-64
2021/06/25 05:00:24;;;;;;;;;;;25.90;44.20;;;;;;1619829;72;1645;-66
2021/06/25 05:02:25;;;;;;;;;;;25.90;44.20;;;;;;1619457;72;746;-66
2021/06/25 05:04:27;;;;;;;;;;;25.90;44.00;;;;;;1621123;72;736;-66
2021/06/25 05:06:29;;;;;;;;;;;25.90;44.00;;;;;;1616401;72;730;-65
2021/06/25 05:08:31;;;;;;;;;;;25.90;44.20;;;;;;1612539;72;2107;-71
2021/06/25 05:10:33;;;;;;;;;;;25.90;44.00;;;;;;1586060;73;723;-75
2021/06/25 05:12:35;;;;;;;;;;;25.90;44.20;;;;;;1593097;73;745;-73
2021/06/25 05:14:37;;;;;;;;;;;25.90;44.10;;;;;;1590910;73;1939;-71
2021/06/25 05:16:39;;;;;;;;;;;25.90;43.90;;;;;;1584777;73;698;-70
2021/06/25 05:18:40;;;;;;;;;;;25.90;44.00;;;;;;1601254;72;1211;-70
2021/06/25 05:20:43;;;;;;;;;;;25.90;44.10;;;;;;1612026;73;764;-72
2021/06/25 05:22:44;;;;;;;;;;;25.90;43.90;;;;;;1609445;72;756;-73
2021/06/25 05:24:46;;;;;;;;;;;25.90;43.60;;;;;;1615003;72;760;-76
2021/06/25 05:26:48;;;;;;;;;;;25.90;43.60;;;;;;1610198;72;668;-74
2021/06/25 05:28:50;;;;;;;;;;;25.90;43.80;;;;;;1614823;72;1139;-75
2021/06/25 05:30:52;;;;;;;;;;;25.90;43.80;;;;;;1612889;72;725;-74
2021/06/25 05:32:54;;;;;;;;;;;25.90;43.60;;;;;;1604956;72;1932;-75
2021/06/25 05:34:56;;;;;;;;;;;25.90;43.50;;;;;;1611038;72;754;-73
2021/06/25 05:36:58;;;;;;;;;;;25.90;43.40;;;;;;1605198;72;717;-71
2021/06/25 05:39:00;;;;;;;;;;;25.90;43.40;;;;;;1613546;72;1168;-72
2021/06/25 05:41:02;;;;;;;;;;;25.90;43.50;;;;;;1618102;72;599;-73
2021/06/25 05:43:04;;;;;;;;;;;25.90;43.30;;;;;;1613407;72;708;-75
2021/06/25 05:45:06;;;;;;;;;;;25.90;43.50;;;;;;1616791;72;700;-74
2021/06/25 05:47:08;;;;;;;;;;;25.90;43.60;;;;;;1607560;72;692;-74
2021/06/25 05:49:10;;;;;;;;;;;25.90;43.40;;;;;;1609044;72;1135;-74
2021/06/25 05:51:12;;;;;;;;;;;25.80;43.60;;;;;;1601901;72;628;-75
2021/06/25 05:53:14;;;;;;;;;;;25.90;43.50;;;;;;1611300;72;1905;-74
2021/06/25 05:55:16;;;;;;;;;;;25.90;43.60;;;;;;1620471;72;658;-74
2021/06/25 05:57:18;;;;;;;;;;;25.80;43.50;;;;;;1609086;72;707;-74
2021/06/25 05:59:20;;;;;;;;;;;25.90;43.60;;;;;;1600928;72;1131;-71
2021/06/25 06:01:22;;;;;;;;;;;25.90;44.00;;;;;;1613899;72;726;-72
2021/06/25 06:03:23;;;;;;;;;;;25.90;44.50;;;;;;1604906;72;748;-69
2021/06/25 06:05:25;;;;;;;;;;;25.90;44.60;;;;;;1611801;72;704;-70
2021/06/25 06:07:27;;;;;;;;;;;25.80;45.30;;;;;;1610821;72;742;-68
2021/06/25 06:09:29;;;;;;;;;;;25.80;45.30;;;;;;1608016;72;1136;-69
2021/06/25 06:11:31;;;;;;;;;;;25.90;45.40;;;;;;1600488;72;672;-73
2021/06/25 06:13:33;;;;;;;;;;;25.80;45.60;;;;;;1610214;72;1936;-72
2021/06/25 06:15:35;;;;;;;;;;;25.80;45.50;;;;;;1591519;72;745;-70
2021/06/25 06:17:38;;;;;;;;;;;25.90;45.00;;;;;;1611002;72;761;-71
2021/06/25 06:19:43;;;;;;;;;;;25.90;45.30;;;;;;1601463;72;1184;-72
2021/06/25 06:33:25;;;;;;;;;;;25.90;45.10;;;;;;1610078;72;1924;-73
2021/06/25 06:35:25;;;;;;;;;;;25.90;44.70;;;;;;1615187;72;1106;-74
2021/06/25 06:37:27;;;;;;;;;;;25.90;44.60;;;;;;1606973;72;657;-73
2021/06/25 06:39:29;;;;;;;;;;;25.90;44.50;;;;;;1602320;72;1160;-73
2021/06/25 06:41:31;;;;;;;;;;;25.90;44.20;;;;;;1571004;74;706;-70
2021/06/25 06:43:37;;;;;;;;;;;25.80;44.00;;;;;;1578460;74;778;-74
2021/06/25 06:45:38;;;;;;;;;;;25.80;43.80;;;;;;1604367;73;998;-73
2021/06/25 06:47:40;;;;;;;;;;;25.80;43.60;;;;;;1600020;73;704;-75
2021/06/25 06:49:42;;;;;;;;;;;25.80;43.80;;;;;;1570047;74;1087;-74
2021/06/25 06:51:43;;;;;;;;;;;25.90;44.00;;;;;;1582071;73;759;-75
2021/06/25 06:53:45;;;;;;;;;;;25.90;43.90;;;;;;1589991;73;1926;-75
2021/06/25 06:55:47;;;;;;;;;;;25.80;43.60;;;;;;1593577;73;734;-73
2021/06/25 06:57:49;;;;;;;;;;;25.80;43.40;;;;;;1583489;73;725;-73
2021/06/25 06:59:51;;;;;;;;;;;25.80;43.10;;;;;;1594778;73;1111;-74
2021/06/25 07:01:53;;;;;;;;;;;25.70;43.10;;;;;;1594006;73;748;-73
2021/06/25 07:03:55;;;;;;;;;;;25.70;42.90;;;;;;1594583;73;776;-73
2021/06/25 07:05:57;;;;;;;;;;;25.80;42.80;;;;;;1570358;74;710;-76
2021/06/25 07:07:58;;;;;;;;;;;25.70;42.70;;;;;;1567936;73;1120;-73
2021/06/25 07:10:00;;;;;;;;;;;25.70;42.70;;;;;;1570139;74;769;-74
2021/06/25 07:12:02;;;;;;;;;;;25.70;42.80;;;;;;1564929;74;725;-74
2021/06/25 07:14:04;;;;;;;;;;;25.70;42.70;;;;;;1555863;74;1938;-74
2021/06/25 07:16:06;;;;;;;;;;;25.70;42.50;;;;;;1573748;74;707;-74
2021/06/25 07:18:08;;;;;;;;;;;25.70;42.20;;;;;;1567342;74;1169;-73
2021/06/25 07:20:10;;;;;;;;;;;25.70;42.20;;;;;;1566613;74;726;-75
2021/06/25 07:22:12;;;;;;;;;;;25.70;42.20;;;;;;1596641;73;745;-75
2021/06/25 07:24:14;;;;;;;;;;;25.70;42.10;;;;;;1556426;74;720;-75
2021/06/25 07:26:17;;;;;;;;;;;25.80;42.10;;;;;;1598753;73;711;-73
2021/06/25 07:28:19;;;;;;;;;;;25.70;41.90;;;;;;1595983;73;1133;-74
2021/06/25 07:30:21;;;;;;;;;;;25.70;41.80;;;;;;1596808;73;709;-74
2021/06/25 07:32:23;;;;;;;;;;;25.70;41.90;;;;;;1596545;73;726;-74
2021/06/25 07:34:25;;;;;;;;;;;25.70;41.80;;;;;;1597045;73;1913;-73
2021/06/25 07:36:27;;;;;;;;;;;25.70;41.90;;;;;;1598080;73;599;-74
2021/06/25 07:38:29;;;;;;;;;;;25.70;42.00;;;;;;1603017;73;1191;-72
2021/06/25 07:40:31;;;;;;;;;;;25.60;42.10;;;;;;1583435;73;701;-73
2021/06/25 07:42:33;;;;;;;;;;;25.70;42.10;;;;;;1596749;73;661;-75
2021/06/25 07:44:35;;;;;;;;;;;25.60;42.10;;;;;;1597323;73;665;-74
2021/06/25 07:46:37;;;;;;;;;;;25.70;42.20;;;;;;1596753;73;738;-73
2021/06/25 07:48:38;;;;;;;;;;;25.70;42.10;;;;;;1599666;73;1140;-74
2021/06/25 07:50:40;;;;;;;;;;;25.70;42.10;;;;;;1601833;73;767;-74
2021/06/25 07:52:42;;;;;;;;;;;25.60;41.90;;;;;;1602677;73;722;-74
2021/06/25 07:54:44;;;;;;;;;;;25.60;42.00;;;;;;1596340;73;1925;-74
2021/06/25 07:56:46;;;;;;;;;;;25.60;42.00;;;;;;1602050;73;734;-75
2021/06/25 07:58:48;;;;;;;;;;;25.60;42.10;;;;;;1611113;73;1150;-74
2021/06/25 08:00:50;;;;;;;;;;;25.60;42.10;;;;;;1605925;73;576;-74
2021/06/25 08:02:52;;;;;;;;;;;25.60;42.10;;;;;;1599530;73;715;-74
2021/06/25 08:04:54;;;;;;;;;;;25.60;42.20;;;;;;1595783;73;719;-74
2021/06/25 08:06:56;;;;;;;;;;;25.60;42.00;;;;;;1594708;73;706;-75
2021/06/25 08:08:58;;;;;;;;;;;25.60;42.10;;;;;;1596606;73;1164;-76
2021/06/25 08:11:00;;;;;;;;;;;25.60;42.00;;;;;;1599640;73;700;-76
2021/06/25 08:13:02;;;;;;;;;;;25.50;42.50;;;;;;1594328;73;699;-75
2021/06/25 08:15:04;;;;;;;;;;;25.50;42.70;;;;;;1554495;74;1937;-75
2021/06/25 08:17:06;;;;;;;;;;;25.40;43.00;;;;;;1554026;75;716;-78
2021/06/25 08:19:08;;;;;;;;;;;25.30;43.20;;;;;;1557763;75;1129;-73
2021/06/25 08:21:10;;;;;;;;;;;25.20;43.20;;;;;;1567959;74;632;-75
2021/06/25 08:23:12;;;;;;;;;;;25.10;43.50;;;;;;1558815;74;789;-76
2021/06/25 08:25:14;;;;;;;;;;;25.10;43.40;;;;;;1561843;74;718;-74
2021/06/25 08:27:15;;;;;;;;;;;25.10;43.80;;;;;;1580118;74;761;-74
2021/06/25 08:29:17;;;;;;;;;;;25.10;43.90;;;;;;1579285;74;1186;-75
2021/06/25 08:31:19;;;;;;;;;;;25.10;43.80;;;;;;1592863;73;703;-75
2021/06/25 08:33:22;;;;;;;;;;;25.00;44.00;;;;;;1590712;73;799;-74
2021/06/25 08:35:24;;;;;;;;;;;25.00;44.10;;;;;;1565658;74;1927;-75
2021/06/25 08:37:26;;;;;;;;;;;25.00;43.70;;;;;;1611478;72;727;-74
2021/06/25 08:39:30;;;;;;;;;;;25.00;44.00;;;;;;1619086;72;1171;-74
2021/06/25 08:41:33;;;;;;;;;;;25.00;44.20;;;;;;1617128;72;2136;-74
2021/06/25 08:43:35;;;;;;;;;;;25.00;44.00;;;;;;1616614;72;721;-76
2021/06/25 08:45:37;;;;;;;;;;;24.80;44.40;;;;;;1625982;72;636;-75
2021/06/25 08:47:42;;;;;;;;;;;24.80;44.50;;;;;;1586774;73;736;-74
2021/06/25 08:49:46;;;;;;;;;;;24.90;44.60;;;;;;1618244;72;1060;-74
2021/06/25 08:51:49;;;;;;;;;;;24.90;44.50;;;;;;1617245;72;715;-71
2021/06/25 08:53:51;;;;;;;;;;;25.00;44.40;;;;;;1620967;72;718;-78
2021/06/25 08:55:52;;;;;;;;;;;25.00;44.10;;;;;;1624191;72;1935;-74
2021/06/25 08:57:54;;;;;;;;;;;25.00;44.30;;;;;;1622944;72;1070;-78
2021/06/25 08:59:56;;;;;;;;;;;25.00;44.40;;;;;;1635409;72;706;-78
2021/06/25 09:01:58;;;;;;;;;;;25.00;44.40;;;;;;1616000;72;711;-74
2021/06/25 09:04:00;;;;;;;;;;;25.00;44.40;;;;;;1623199;72;707;-74
2021/06/25 09:06:12;;;;;;;;;;;25.10;44.40;;;;;;1574888;74;700;-77
2021/06/25 09:08:24;;;;;;;;;;;25.10;44.30;;;;;;1574403;74;1133;-74
2021/06/25 09:10:33;;;;;;;;;;;25.10;44.30;;;;;;1593238;73;695;-74
2021/06/25 09:12:35;;;;;;;;;;;25.10;44.40;;;;;;1589269;73;808;-72
2021/06/25 09:14:56;;;;;;;;;;;25.00;44.50;;;;;;1603908;73;1939;-75
2021/06/25 09:17:00;;;;;;;;;;;25.00;44.60;;;;;;1625647;72;659;-73
2021/06/25 09:19:06;;;;;;;;;;;25.00;44.70;;;;;;1613924;72;1181;-74
2021/06/25 09:21:10;;;;;;;;;;;25.00;44.70;;;;;;1612244;72;726;-75
2021/06/25 09:23:14;;;;;;;;;;;25.00;44.60;;;;;;1628445;72;1176;-74
2021/06/25 09:25:16;;;;;;;;;;;24.90;44.90;;;;;;1619408;72;1224;-73
2021/06/25 09:27:18;;;;;;;;;;;24.80;44.80;;;;;;1623152;72;732;-74
2021/06/25 09:29:23;;;;;;;;;;;24.80;44.90;;;;;;1620190;72;1120;-74
2021/06/25 09:31:28;;;;;;;;;;;24.70;44.90;;;;;;1626355;72;752;-74
2021/06/25 09:33:28;;;;;;;;;;;24.80;45.10;;;;;;1619175;72;1113;-74
2021/06/25 09:35:32;;;;;;;;;;;24.80;45.00;;;;;;1613987;72;1936;-75
2021/06/25 09:37:35;;;;;;;;;;;24.80;45.00;;;;;;1591856;73;725;-76
2021/06/25 09:39:41;;;;;;;;;;;24.80;44.90;;;;;;1598563;73;1166;-73
2021/06/25 09:41:42;;;;;;;;;;;24.80;45.00;;;;;;1613892;72;1140;-73
2021/06/25 09:43:45;;;;;;;;;;;25.00;45.00;;;;;;1618541;72;728;-76
2021/06/25 09:45:48;;;;;;;;;;;25.00;45.00;;;;;;1616819;72;1093;-79
2021/06/25 09:47:54;;;;;;;;;;;24.90;44.90;;;;;;1613828;72;709;-76
2021/06/25 09:50:09;;;;;;;;;;;25.00;44.70;;;;;;1614232;72;814;-76
2021/06/25 09:52:11;;;;;;;;;;;24.80;44.80;;;;;;1614310;72;1000;-73
2021/06/25 09:54:16;;;;;;;;;;;24.80;44.80;;;;;;1609906;72;666;-74
2021/06/25 09:56:25;;;;;;;;;;;24.80;44.90;;;;;;1612332;72;1937;-74
2021/06/25 10:03:16;;;;;;;;;;;24.70;45.00;;;;;;1613478;72;731;-74
2021/06/25 10:05:18;;;;;;;;;;;24.50;45.20;;;;;;1627545;72;766;-76
2021/06/25 10:07:21;;;;;;;;;;;24.50;45.40;;;;;;1613905;72;673;-75
2021/06/25 10:09:23;;;;;;;;;;;24.50;45.40;;;;;;1620311;72;1130;-76
2021/06/25 10:11:26;;;;;;;;;;;24.60;45.40;;;;;;1603000;72;771;-76
2021/06/25 10:13:28;;;;;;;;;;;24.70;45.40;;;;;;1628578;72;780;-75
2021/06/25 10:15:30;;;;;;;;;;;24.70;45.20;;;;;;1604023;72;1938;-77
2021/06/25 10:17:35;;;;;;;;;;;24.80;45.20;;;;;;1612140;72;705;-76
2021/06/25 10:19:40;;;;;;;;;;;24.70;45.20;;;;;;1608394;72;1158;-76
2021/06/25 10:21:42;;;;;;;;;;;24.80;45.20;;;;;;1609213;72;676;-76
2021/06/25 10:23:47;;;;;;;;;;;24.80;45.40;;;;;;1613146;72;676;-79
2021/06/25 10:25:49;;;;;;;;;;;24.80;45.30;;;;;;1613767;72;710;-77
2021/06/25 10:27:51;;;;;;;;;;;24.90;45.20;;;;;;1620202;72;724;-79
2021/06/25 10:29:53;;;;;;;;;;;24.90;45.00;;;;;;1607122;72;1172;-79
2021/06/25 10:31:56;;;;;;;;;;;24.90;44.70;;;;;;1614969;72;743;-76
2021/06/25 10:33:58;;;;;;;;;;;24.80;45.00;;;;;;1606411;72;758;-77
2021/06/25 10:36:01;;;;;;;;;;;24.70;45.20;;;;;;1610903;72;1936;-75
2021/06/25 10:38:03;;;;;;;;;;;24.80;45.20;;;;;;1624230;72;1131;-78
2021/06/25 10:40:25;;;;;;;;;;;24.60;45.40;;;;;;1623373;72;749;-77
2021/06/25 10:42:41;;;;;;;;;;;24.70;45.70;;;;;;1617887;72;765;-75
2021/06/25 10:44:58;;;;;;;;;;;24.90;45.30;;;;;;1601007;72;978;-78
2021/06/25 10:47:13;;;;;;;;;;;24.90;45.10;;;;;;1617089;72;829;-77
2021/06/25 10:49:16;;;;;;;;;;;24.80;45.50;;;;;;1614369;72;1146;-72
2021/06/25 10:51:22;;;;;;;;;;;24.80;45.70;;;;;;1618688;72;713;-79
2021/06/25 10:53:24;;;;;;;;;;;24.80;45.50;;;;;;1615774;72;805;-76
2021/06/25 10:55:26;;;;;;;;;;;24.80;45.40;;;;;;1610744;72;1933;-77
2021/06/25 10:57:28;;;;;;;;;;;24.80;45.50;;;;;;1616682;72;724;-74
2021/06/25 10:59:30;;;;;;;;;;;24.50;45.70;;;;;;1598249;72;1155;-75
2021/06/25 11:01:52;;;;;;;;;;;24.40;46.20;;;;;;1609895;72;712;-81
2021/06/25 11:03:53;;;;;;;;;;;24.30;46.40;;;;;;1615230;72;752;-77
2021/06/25 11:05:55;;;;;;;;;;;24.30;47.00;;;;;;1629477;71;794;-78
2021/06/25 11:07:57;;;;;;;;;;;24.30;47.20;;;;;;1619373;71;1416;-76
2021/06/25 11:10:00;;;;;;;;;;;24.30;47.60;;;;;;1574190;73;223413;-66
2021/06/25 11:12:20;;;;;;;;;;;24.40;47.30;;;;;;1572476;74;733;-65
2021/06/25 11:14:26;;;;;;;;;;;24.60;47.00;;;;;;1573504;74;787;-63
2021/06/25 11:16:27;;;;;;;;;;;24.60;46.70;;;;;;1577294;75;1937;-68
2021/06/25 11:18:30;;;;;;;;;;;24.60;46.80;;;;;;1573832;75;1188;-63
2021/06/25 11:20:35;;;;;;;;;;;24.60;46.60;;;;;;1569799;75;778;-67
2021/06/25 11:22:38;;;;;;;;;;;24.70;46.80;;;;;;1570388;74;835;-66
2021/06/25 11:24:50;;;;;;;;;;;24.70;46.40;;;;;;1572962;75;811;-68
2021/06/25 11:26:53;;;;;;;;;;;24.50;46.60;;;;;;1572790;75;767;-67
2021/06/25 11:28:56;;;;;;;;;;;24.70;46.50;;;;;;1568570;75;1098;-67
2021/06/25 11:31:00;;;;;;;;;;;24.70;46.50;;;;;;1568997;74;1554;-66
2021/06/25 11:33:20;;;;;;;;;;;24.50;46.30;;;;;;1572188;75;941;-66
2021/06/25 11:35:23;;;;;;;;;;;24.50;46.60;;;;;;1572028;75;1926;-67
2021/06/25 11:37:44;;;;;;;;;;;24.40;47.00;;;;;;1568636;74;1957;-67
2021/06/25 11:39:47;;;;;;;;;;;24.50;47.10;;;;;;1571989;75;1192;-66
2021/06/25 11:42:08;;;;;;;;;;;24.50;47.10;;;;;;1570983;74;1925;-67
2021/06/25 11:44:20;;;;;;;;;;;24.50;46.50;;;;;;1565751;75;666;-66
2021/06/25 11:46:22;;;;;;;;;;;24.50;46.60;;;;;;1568133;74;874;-66
2021/06/25 11:48:24;;;;;;;;;;;24.50;45.80;;;;;;1564251;75;1129;-66
2021/06/25 11:50:26;;;;;;;;;;;24.40;46.40;;;;;;1573264;74;863;-68
2021/06/25 11:52:35;;;;;;;;;;;24.30;46.40;;;;;;1567833;74;741;-65
2021/06/25 11:54:37;;;;;;;;;;;24.40;48.40;;;;;;1566593;75;830;-65
2021/06/25 11:56:39;;;;;;;;;;;24.20;48.40;;;;;;1573070;75;1941;-66
2021/06/25 11:58:42;;;;;;;;;;;24.30;48.40;;;;;;1559500;75;1153;-67
2021/06/25 12:00:44;;;;;;;;;;;24.40;48.20;;;;;;1570489;74;1858;-67
2021/06/25 12:02:50;;;;;;;;;;;24.50;50.10;;;;;;1540251;76;849;-68
2021/06/25 12:04:53;;;;;;;;;;;24.40;49.50;;;;;;1567185;75;686;-68
2021/06/25 12:06:57;;;;;;;;;;;24.50;50.50;;;;;;1567855;74;719;-66
2021/06/25 12:09:05;;;;;;;;;;;24.50;50.10;;;;;;1569103;74;2006;-67
2021/06/25 12:11:05;;;;;;;;;;;24.50;49.70;;;;;;1565498;75;1868;-63
2021/06/25 12:13:08;;;;;;;;;;;24.50;49.80;;;;;;1569096;75;791;-68
2021/06/25 12:15:10;;;;;;;;;;;24.50;49.10;;;;;;1572253;75;775;-63
2021/06/25 12:17:12;;;;;;;;;;;24.60;49.20;;;;;;1570453;74;1929;-66
2021/06/25 12:19:14;;;;;;;;;;;24.60;49.10;;;;;;1573109;74;1149;-66
2021/06/25 12:21:17;;;;;;;;;;;24.70;49.40;;;;;;1563061;75;746;-68
2021/06/25 12:23:20;;;;;;;;;;;24.80;49.40;;;;;;1568463;75;684;-66
2021/06/25 12:25:39;;;;;;;;;;;24.90;49.80;;;;;;1537315;75;711;-67
2021/06/25 12:27:41;;;;;;;;;;;24.80;49.60;;;;;;1564592;74;722;-67
2021/06/25 12:29:45;;;;;;;;;;;24.70;49.30;;;;;;1569061;75;1156;-68